createdAt,value
2023-09-19T00:17:01.161Z,13.99
2023-09-19T00:20:01.998Z,13.98
2023-09-19T00:23:14.327Z,13.97
2023-09-19T00:26:14.477Z,13.92
2023-09-19T00:29:30.739Z,13.93
2023-09-19T00:32:10.196Z,13.92
2023-09-19T00:35:20.634Z,13.93
2023-09-19T00:38:29.963Z,13.93
2023-09-19T00:41:30.817Z,13.95
2023-09-19T00:44:45.707Z,13.97
2023-09-19T00:48:00.911Z,13.97
2023-09-19T00:51:13.883Z,13.97
2023-09-19T00:54:35.361Z,14.03
2023-09-19T00:58:00.554Z,14.05
2023-09-19T01:00:46.200Z,14.06
2023-09-19T01:04:15.662Z,14.11
2023-09-19T01:07:16.280Z,14.16
2023-09-19T01:10:13.680Z,14.14
2023-09-19T01:13:49.537Z,14.12
2023-09-19T01:16:52.077Z,14.07
2023-09-19T01:20:30.438Z,14.06
2023-09-19T01:24:15.723Z,14.09
2023-09-19T01:27:52.168Z,14.04
2023-09-19T01:30:45.391Z,14.01
2023-09-19T01:34:29.848Z,14.01
2023-09-19T01:38:03.564Z,14.04
2023-09-19T01:41:15.957Z,14.09
2023-09-19T01:44:19.759Z,14.15
2023-09-19T01:47:21.973Z,14.22
2023-09-19T01:51:05.920Z,14.28
2023-09-19T01:54:14.017Z,14.34
2023-09-19T01:57:41.111Z,14.40
2023-09-19T02:00:32.849Z,14.48
2023-09-19T02:03:26.749Z,14.54
2023-09-19T02:06:21.556Z,14.62
2023-09-19T02:09:36.954Z,14.69
2023-09-19T02:12:37.752Z,14.74
2023-09-19T02:15:28.110Z,14.75
2023-09-19T02:18:27.608Z,14.78
2023-09-19T02:21:35.747Z,14.78
2023-09-19T02:24:49.600Z,14.87
2023-09-19T02:27:37.586Z,14.94
2023-09-19T02:30:17.558Z,15.00
2023-09-19T02:33:40.983Z,15.05
2023-09-19T02:36:48.712Z,15.09
2023-09-19T02:39:39.576Z,15.12
2023-09-19T02:42:48.972Z,15.14
2023-09-19T02:45:31.573Z,15.13
2023-09-19T02:48:34.004Z,15.17
2023-09-19T03:04:23.949Z,15.31
2023-09-19T03:07:15.189Z,15.36
2023-09-19T03:10:47.175Z,15.40
2023-09-19T03:14:16.790Z,15.40
2023-09-19T03:17:06.694Z,15.41
2023-09-19T03:19:59.976Z,15.44
2023-09-19T03:23:02.661Z,15.48
2023-09-19T03:26:02.469Z,15.51
2023-09-19T03:29:08.190Z,15.55
2023-09-19T03:32:25.421Z,15.57
2023-09-19T03:35:18.939Z,15.55
2023-09-19T03:38:41.053Z,15.53
2023-09-19T03:41:34.820Z,15.54
2023-09-19T03:44:06.190Z,15.58
2023-09-19T03:46:57.314Z,15.62
2023-09-19T03:49:44.649Z,15.67
2023-09-19T03:52:34.993Z,15.67
2023-09-19T03:55:28.939Z,15.63
2023-09-19T03:58:01.839Z,15.60
2023-09-19T04:01:11.533Z,15.51
2023-09-19T04:04:11.084Z,15.52
2023-09-19T04:07:13.861Z,15.54
2023-09-19T04:10:10.636Z,15.52
2023-09-19T04:12:56.178Z,15.54
2023-09-19T04:15:34.898Z,15.58
2023-09-19T04:18:25.202Z,15.61
2023-09-19T04:21:35.944Z,15.65
2023-09-19T04:24:28.314Z,15.65
2023-09-19T04:27:31.206Z,15.67
2023-09-19T04:30:46.237Z,15.69
2023-09-19T04:33:41.754Z,15.71
2023-09-19T04:36:35.204Z,15.68
2023-09-19T04:39:27.221Z,15.64
2023-09-19T04:42:07.678Z,15.68
2023-09-19T04:44:54.921Z,15.71
2023-09-19T04:47:46.247Z,15.75
2023-09-19T04:50:28.429Z,15.80
2023-09-19T04:53:29.653Z,15.84
2023-09-19T04:56:17.346Z,15.85
2023-09-19T04:58:58.089Z,15.85
2023-09-19T05:01:43.892Z,15.81
2023-09-19T05:04:21.371Z,15.85
2023-09-19T05:06:57.963Z,15.85
2023-09-19T05:09:50.055Z,15.87
2023-09-19T05:12:21.978Z,15.91
2023-09-19T05:15:11.305Z,15.97
2023-09-19T05:18:05.393Z,16.00
2023-09-19T05:20:57.786Z,15.95
2023-09-19T05:23:38.812Z,15.84
2023-09-19T05:26:33.403Z,15.82
2023-09-19T05:29:35.062Z,15.87
2023-09-19T05:32:14.364Z,15.96
2023-09-19T05:34:47.190Z,16.05
2023-09-19T05:37:46.493Z,16.12
2023-09-19T05:40:46.204Z,16.17
2023-09-19T05:43:25.911Z,16.21
2023-09-19T05:46:05.326Z,16.23
2023-09-19T05:48:55.494Z,16.25
2023-09-19T05:51:41.218Z,16.28
2023-09-19T05:54:23.961Z,16.32
2023-09-19T05:57:18.357Z,16.39
2023-09-19T05:59:52.130Z,16.48
2023-09-19T06:02:45.289Z,16.56
2023-09-19T06:05:24.113Z,16.61
2023-09-19T06:08:19.275Z,16.61
2023-09-19T06:11:06.443Z,16.60
2023-09-19T06:13:48.941Z,16.64
2023-09-19T06:16:22.343Z,16.71
2023-09-19T06:18:56.284Z,16.80
2023-09-19T06:21:28.963Z,16.90
2023-09-19T06:24:01.672Z,16.99
2023-09-19T06:26:45.935Z,17.04
2023-09-19T06:29:25.136Z,17.04
2023-09-19T06:32:10.720Z,17.01
2023-09-19T06:34:40.572Z,16.98
2023-09-19T06:37:28.330Z,16.97
2023-09-19T06:40:02.760Z,16.93
2023-09-19T06:43:06.300Z,16.89
2023-09-19T06:45:48.505Z,16.90
2023-09-19T06:48:30.672Z,16.86
2023-09-19T06:51:19.346Z,16.88
2023-09-19T06:53:52.818Z,16.93
2023-09-19T06:56:33.760Z,16.96
2023-09-19T06:59:17.368Z,17.00
2023-09-19T07:01:56.579Z,17.00
2023-09-19T07:04:49.443Z,17.01
2023-09-19T07:07:47.114Z,17.04
2023-09-19T07:10:27.558Z,17.09
2023-09-19T07:13:16.215Z,17.12
2023-09-19T07:15:49.488Z,17.14
2023-09-19T07:18:47.881Z,17.16
2023-09-19T07:21:23.041Z,17.16
2023-09-19T07:23:57.987Z,17.13
2023-09-19T07:26:48.406Z,17.16
2023-09-19T07:29:18.726Z,17.19
2023-09-19T07:32:29.614Z,17.21
2023-09-19T07:35:21.020Z,17.19
2023-09-19T07:38:23.054Z,17.17
2023-09-19T07:40:53.299Z,17.16
2023-09-19T07:43:32.460Z,17.15
2023-09-19T07:46:14.192Z,17.07
2023-09-19T07:48:53.837Z,17.03
2023-09-19T07:51:48.552Z,17.04
2023-09-19T07:54:20.741Z,17.05
2023-09-19T07:57:03.443Z,17.03
2023-09-19T07:59:54.777Z,17.02
2023-09-19T08:02:24.366Z,17.03
2023-09-19T08:05:14.669Z,17.04
2023-09-19T08:08:04.542Z,17.03
2023-09-19T08:10:37.694Z,17.04
2023-09-19T08:13:45.305Z,17.10
2023-09-19T08:16:29.397Z,17.16
2023-09-19T08:19:04.844Z,17.21
2023-09-19T08:21:49.687Z,17.23
2023-09-19T08:24:31.707Z,17.28
2023-09-19T08:27:22.437Z,17.33
2023-09-19T08:30:05.192Z,17.35
2023-09-19T08:32:44.466Z,17.39
2023-09-19T08:35:48.033Z,17.44
2023-09-19T08:38:31.413Z,17.48
2023-09-19T08:41:07.051Z,17.54
2023-09-19T08:43:53.723Z,17.56
2023-09-19T08:46:37.566Z,17.57
2023-09-19T08:49:25.851Z,17.53
2023-09-19T08:52:22.498Z,17.47
2023-09-19T08:55:02.813Z,17.43
2023-09-19T08:57:45.036Z,17.37
2023-09-19T09:00:26.369Z,17.31
2023-09-19T09:03:08.452Z,17.24
2023-09-19T09:05:42.240Z,17.15
2023-09-19T09:08:17.200Z,17.06
2023-09-19T09:10:47.662Z,16.99
2023-09-19T09:13:23.576Z,16.91
2023-09-19T09:16:00.571Z,16.86
2023-09-19T09:18:33.961Z,16.83
2023-09-19T09:21:15.266Z,16.80
2023-09-19T09:23:49.380Z,16.78
2023-09-19T09:26:50.927Z,16.75
2023-09-19T09:30:00.268Z,16.67
2023-09-19T09:32:35.389Z,16.58
2023-09-19T09:35:16.601Z,16.52
2023-09-19T09:37:55.822Z,16.46
2023-09-19T09:40:48.777Z,16.42
2023-09-19T09:43:50.526Z,16.40
2023-09-19T09:47:01.213Z,16.41
2023-09-19T09:49:41.803Z,16.42
2023-09-19T09:52:21.449Z,16.46
2023-09-19T09:55:03.326Z,16.55
2023-09-19T09:57:43.128Z,16.63
2023-09-19T10:00:14.110Z,16.76
2023-09-19T10:03:03.109Z,16.87
2023-09-19T10:05:59.814Z,16.94
2023-09-19T10:08:39.866Z,17.01
2023-09-19T10:11:21.437Z,17.03
2023-09-19T10:13:52.218Z,17.08
2023-09-19T10:16:26.497Z,17.11
2023-09-19T10:19:03.622Z,17.16
2023-09-19T10:21:44.982Z,17.24
2023-09-19T10:24:29.575Z,17.35
2023-09-19T10:27:10.726Z,17.44
2023-09-19T10:29:45.402Z,17.53
2023-09-19T10:32:20.695Z,17.65
2023-09-19T10:35:00.439Z,17.78
2023-09-19T10:37:33.998Z,17.85
2023-09-19T10:40:19.174Z,17.94
2023-09-19T10:42:51.761Z,18.06
2023-09-19T10:45:23.974Z,18.15
2023-09-19T10:48:00.419Z,18.23
2023-09-19T10:50:52.738Z,18.30
2023-09-19T10:53:33.826Z,18.48
2023-09-19T10:56:21.447Z,18.66
2023-09-19T10:58:52.858Z,18.78
2023-09-19T11:01:51.214Z,18.85
2023-09-19T11:04:42.260Z,19.00
2023-09-19T11:07:16.447Z,19.20
2023-09-19T11:09:56.363Z,19.36
2023-09-19T11:12:47.270Z,19.45
2023-09-19T11:15:58.747Z,19.58
2023-09-19T11:18:47.943Z,19.74
2023-09-19T11:21:54.052Z,19.89
2023-09-19T11:24:32.751Z,20.14
2023-09-19T11:27:36.127Z,20.47
2023-09-19T11:30:45.300Z,20.92
2023-09-19T11:33:23.704Z,21.45
2023-09-19T11:36:17.453Z,21.73
2023-09-19T11:38:51.376Z,21.69
2023-09-19T11:41:23.354Z,21.52
2023-09-19T11:44:15.241Z,21.40
2023-09-19T11:46:58.272Z,21.32
2023-09-19T11:49:34.586Z,21.28
2023-09-19T11:52:10.206Z,21.39
2023-09-19T11:54:44.525Z,21.76
2023-09-19T11:57:22.953Z,22.07
2023-09-19T11:59:55.290Z,22.25
2023-09-19T12:02:43.976Z,22.26
2023-09-19T12:05:16.709Z,22.23
2023-09-19T12:07:53.125Z,22.24
2023-09-19T12:10:25.239Z,22.29
2023-09-19T12:12:58.000Z,22.40
2023-09-19T12:15:37.067Z,22.64
2023-09-19T12:18:29.928Z,23.02
2023-09-19T12:21:14.706Z,23.38
2023-09-19T12:23:45.383Z,23.71
2023-09-19T12:26:16.415Z,23.94
2023-09-19T12:28:46.691Z,23.99
2023-09-19T12:31:19.831Z,24.00
2023-09-19T12:33:56.785Z,23.95
2023-09-19T12:36:32.023Z,23.81
2023-09-19T12:39:02.508Z,23.58
2023-09-19T12:41:33.436Z,23.44
2023-09-19T12:44:07.871Z,23.27
2023-09-19T12:46:39.684Z,23.15
2023-09-19T12:49:20.333Z,23.04
2023-09-19T12:52:01.089Z,22.99
2023-09-19T12:54:42.036Z,22.96
2023-09-19T12:57:27.558Z,22.94
2023-09-19T12:59:58.520Z,22.93
2023-09-19T13:02:30.963Z,22.89
2023-09-19T13:05:05.864Z,22.85
2023-09-19T13:07:51.270Z,22.82
2023-09-19T13:10:25.930Z,22.79
2023-09-19T13:13:30.288Z,22.73
2023-09-19T13:16:03.019Z,22.66
2023-09-19T13:18:34.747Z,22.62
2023-09-19T13:21:13.980Z,22.60
2023-09-19T13:23:45.296Z,22.63
2023-09-19T13:26:15.493Z,22.65
2023-09-19T13:28:45.893Z,22.66
2023-09-19T13:31:15.985Z,22.62
2023-09-19T13:33:47.646Z,22.63
2023-09-19T13:36:20.464Z,22.64
2023-09-19T13:38:51.089Z,22.68
2023-09-19T13:41:22.960Z,22.72
2023-09-19T13:43:54.485Z,22.73
2023-09-19T13:46:29.105Z,22.77
2023-09-19T13:49:00.835Z,22.81
2023-09-19T13:51:33.561Z,22.84
2023-09-19T13:54:04.104Z,22.86
2023-09-19T13:56:35.298Z,22.85
2023-09-19T13:59:05.729Z,22.83
2023-09-19T14:01:35.015Z,22.80
2023-09-19T14:04:05.321Z,22.82
2023-09-19T14:06:35.488Z,22.83
2023-09-19T14:09:05.772Z,22.87
2023-09-19T14:11:36.350Z,22.89
2023-09-19T14:14:07.848Z,22.93
2023-09-19T14:16:41.286Z,23.04
2023-09-19T14:19:11.886Z,23.16
2023-09-19T14:21:42.761Z,23.24
2023-09-19T14:24:18.241Z,23.19
2023-09-19T14:26:49.038Z,23.17
2023-09-19T14:29:21.474Z,23.16
2023-09-19T14:31:53.575Z,23.09
2023-09-19T14:34:23.560Z,22.96
2023-09-19T14:36:55.974Z,22.83
2023-09-19T14:39:26.806Z,22.73
2023-09-19T14:41:59.184Z,22.62
2023-09-19T14:44:29.943Z,22.55
2023-09-19T14:46:59.130Z,22.54
2023-09-19T14:49:29.904Z,22.49
2023-09-19T14:52:00.786Z,22.45
2023-09-19T14:54:32.454Z,22.39
2023-09-19T14:57:10.516Z,22.35
2023-09-19T14:59:40.839Z,22.32
2023-09-19T15:02:10.242Z,22.30
2023-09-19T15:04:42.783Z,22.30
2023-09-19T15:07:11.901Z,22.30
2023-09-19T15:09:40.967Z,22.26
2023-09-19T15:12:15.836Z,22.24
2023-09-19T15:14:49.528Z,22.21
2023-09-19T15:17:19.637Z,22.19
2023-09-19T15:19:48.601Z,22.17
2023-09-19T15:22:19.125Z,22.15
2023-09-19T15:24:49.287Z,22.12
2023-09-19T15:27:21.516Z,22.08
2023-09-19T15:29:51.593Z,21.99
2023-09-19T15:32:21.479Z,21.86
2023-09-19T15:34:51.641Z,21.80
2023-09-19T15:37:22.258Z,21.76
2023-09-19T15:39:53.432Z,21.77
2023-09-19T15:42:23.607Z,21.81
2023-09-19T15:44:54.354Z,21.85
2023-09-19T15:47:25.901Z,21.86
2023-09-19T15:49:56.481Z,21.85
2023-09-19T15:52:27.956Z,21.84
2023-09-19T15:54:58.615Z,21.84
2023-09-19T15:57:32.371Z,21.84
2023-09-19T16:00:16.364Z,21.84
2023-09-19T16:02:49.112Z,21.83
2023-09-19T16:05:19.650Z,21.82
2023-09-19T16:07:58.988Z,21.77
2023-09-19T16:10:30.477Z,21.75
2023-09-19T16:13:00.862Z,21.68
2023-09-19T16:15:31.296Z,21.60
2023-09-19T16:18:02.138Z,21.56
2023-09-19T16:20:36.274Z,21.58
2023-09-19T16:23:07.039Z,21.58
2023-09-19T16:25:37.938Z,21.55
2023-09-19T16:28:09.065Z,21.51
2023-09-19T16:30:40.301Z,21.50
2023-09-19T16:33:10.707Z,21.49
2023-09-19T16:35:48.817Z,21.46
2023-09-19T16:38:19.050Z,21.40
2023-09-19T16:41:00.809Z,21.32
2023-09-19T16:43:31.195Z,21.20
2023-09-19T16:46:04.277Z,21.06
2023-09-19T16:48:55.416Z,20.92
2023-09-19T16:51:30.698Z,20.78
2023-09-19T16:53:59.841Z,20.67
2023-09-19T16:56:34.769Z,20.57
2023-09-19T16:59:07.484Z,20.50
2023-09-19T17:01:51.667Z,20.44
2023-09-19T17:04:22.060Z,20.35
2023-09-19T17:06:54.019Z,20.26
2023-09-19T17:09:24.297Z,20.18
2023-09-19T17:11:55.248Z,20.10
2023-09-19T17:14:25.474Z,20.06
2023-09-19T17:16:55.829Z,20.05
2023-09-19T17:19:26.101Z,20.03
2023-09-19T17:21:56.227Z,20.01
2023-09-19T17:24:26.366Z,19.99
2023-09-19T17:26:56.523Z,19.97
2023-09-19T17:29:27.990Z,19.96
2023-09-19T17:31:58.371Z,19.96
2023-09-19T17:34:28.566Z,19.97
2023-09-19T17:36:59.468Z,19.99
2023-09-19T17:39:31.334Z,20.00
2023-09-19T17:42:00.255Z,19.99
2023-09-19T17:44:36.274Z,19.99
2023-09-19T17:47:06.837Z,19.98
2023-09-19T17:49:39.400Z,19.99
2023-09-19T17:52:08.504Z,19.97
2023-09-19T17:54:38.802Z,19.93
2023-09-19T17:57:09.337Z,19.90
2023-09-19T17:59:40.604Z,19.88
2023-09-19T18:02:11.241Z,19.85
2023-09-19T18:04:41.302Z,19.83
2023-09-19T18:07:12.378Z,19.80
2023-09-19T18:09:42.967Z,19.74
2023-09-19T18:12:13.326Z,19.69
2023-09-19T18:14:42.623Z,19.66
2023-09-19T18:17:22.880Z,19.62
2023-09-19T18:19:53.065Z,19.59
2023-09-19T18:22:27.619Z,19.56
2023-09-19T18:24:58.643Z,19.52
2023-09-19T18:27:32.313Z,19.51
2023-09-19T18:30:03.685Z,19.51
2023-09-19T18:32:34.687Z,19.51
2023-09-19T18:35:08.898Z,19.50
2023-09-19T18:37:49.600Z,19.46
2023-09-19T18:40:20.034Z,19.42
2023-09-19T18:42:51.412Z,19.39
2023-09-19T18:45:38.423Z,19.37
2023-09-19T18:48:20.940Z,19.37
2023-09-19T18:50:55.021Z,19.36
2023-09-19T18:53:27.484Z,19.36
2023-09-19T18:56:16.745Z,19.34
2023-09-19T18:58:52.210Z,19.34
2023-09-19T19:01:22.407Z,19.34
2023-09-19T20:18:46.495Z,18.00
2023-09-19T20:21:15.756Z,17.97
2023-09-19T20:23:48.872Z,17.94
2023-09-19T20:26:17.810Z,17.91
2023-09-19T20:28:55.632Z,17.85
2023-09-19T20:31:25.468Z,17.80
2023-09-19T20:33:54.258Z,17.69
2023-09-19T20:36:23.171Z,17.63
2023-09-19T20:38:55.841Z,17.60
2023-09-19T20:41:24.889Z,17.57
2023-09-19T20:43:53.270Z,17.51
2023-09-19T20:46:31.216Z,17.46
2023-09-19T20:49:02.447Z,17.41
2023-09-19T20:51:36.378Z,17.36
2023-09-19T20:54:09.300Z,17.31
2023-09-19T20:56:50.136Z,17.29
2023-09-19T20:59:39.915Z,17.28
2023-09-19T21:02:10.490Z,17.25
2023-09-19T21:04:39.508Z,17.24
2023-09-19T21:07:30.470Z,17.21
2023-09-19T21:10:11.987Z,17.20
2023-09-19T21:12:40.785Z,17.19
2023-09-19T21:15:10.029Z,17.20
2023-09-19T21:17:44.036Z,17.22
2023-09-19T21:20:26.974Z,17.21
2023-09-19T21:23:06.000Z,17.18
2023-09-19T21:25:52.532Z,17.15
2023-09-19T21:28:27.518Z,17.14
2023-09-19T21:31:15.935Z,17.13
2023-09-19T21:33:50.195Z,17.13
2023-09-19T21:36:25.070Z,17.14
2023-09-19T21:39:20.412Z,17.13
2023-09-19T21:42:01.708Z,17.10
2023-09-19T21:44:51.886Z,17.10
2023-09-19T21:47:29.266Z,17.11
2023-09-19T21:49:59.004Z,17.12
2023-09-19T21:52:32.007Z,17.12
2023-09-19T21:55:21.707Z,17.12
2023-09-19T21:57:50.744Z,17.10
2023-09-19T22:00:38.965Z,17.08
2023-09-19T22:03:17.200Z,17.08
2023-09-19T22:06:05.716Z,17.08
2023-09-19T22:08:35.565Z,17.07
2023-09-19T22:11:09.850Z,17.05
2023-09-19T22:13:52.620Z,17.00
2023-09-19T22:16:22.069Z,16.98
2023-09-19T22:18:56.019Z,16.96
2023-09-19T22:21:34.348Z,16.95
2023-09-19T22:24:23.587Z,16.91
2023-09-19T22:27:14.364Z,16.87
2023-09-19T22:29:46.791Z,16.83
2023-09-19T22:32:37.984Z,16.80
2023-09-19T22:35:11.980Z,16.75
2023-09-19T22:37:42.741Z,16.69
2023-09-19T22:40:55.725Z,16.56
2023-09-19T22:43:58.229Z,16.34
2023-09-19T22:46:28.408Z,16.22
2023-09-19T22:49:41.705Z,16.17
2023-09-19T22:52:11.211Z,16.16
2023-09-19T22:54:43.966Z,16.15
2023-09-19T22:57:16.632Z,16.13
2023-09-19T23:00:15.971Z,16.08
2023-09-19T23:03:10.893Z,16.00
2023-09-19T23:06:09.225Z,15.94
2023-09-19T23:09:06.460Z,15.88
2023-09-19T23:11:40.043Z,15.82
2023-09-19T23:14:40.745Z,15.79
2023-09-19T23:17:23.385Z,15.75
2023-09-19T23:20:24.198Z,15.68
2023-09-19T23:23:16.618Z,15.66
2023-09-19T23:26:07.883Z,15.60
2023-09-19T23:28:44.113Z,15.58
2023-09-19T23:31:39.076Z,15.56
2023-09-19T23:34:17.520Z,15.51
2023-09-19T23:37:01.188Z,15.42
2023-09-19T23:39:53.085Z,15.43
2023-09-19T23:42:23.132Z,15.43
2023-09-19T23:44:58.597Z,15.44
2023-09-19T23:47:52.165Z,15.44
2023-09-19T23:50:30.510Z,15.37
2023-09-19T23:53:18.517Z,15.27
2023-09-19T23:56:18.903Z,15.20
2023-09-19T23:59:07.473Z,15.11
